Sovereign — 9HUE9 — position and weather

sailwx.info

Track history (hours):
 
Tides and Currents Weather Stations Pressure Air Temp Water Temp Dewpoint Dewpoint Depression Visibility Wind Speed Wind Dir Waves Ship Positions

Sovereign

Last reported at 2017-Aug-19 21:01 UTC. Time now 2017-Aug-20 20:47 UTC.
Position N 41°17' E 003°47'.

Length 268 m; draft 7.6 m.

Type: Passenger vessel. MMSI: 249539000.

Date/timePositionNaut miles runAvg speedWind from/ knotsBaromVisibWave heightAir tempDewpointWater temp
2017-Aug-19 21:01N 41°17' E 003°47'116.7
2017-Aug-19 20:56N 41°17' E 003°45'716.7
2017-Aug-19 20:30N 41°17' E 003°36'916.6
2017-Aug-19 19:59N 41°17' E 003°24'816.3
2017-Aug-19 19:30N 41°17' E 003°14'816.1
2017-Aug-19 19:00N 41°17' E 003°03'816.2
2017-Aug-19 18:29N 41°17' E 002°52'816.4
2017-Aug-19 18:00N 41°16' E 002°41'816.4
2017-Aug-19 17:31N 41°17' E 002°30'916.3
2017-Aug-19 16:58N 41°16' E 002°19'714.0
2017-Aug-19 16:30N 41°18' E 002°10'4 7.8
2017-Aug-19 16:00N 41°22' E 002°11'0 0.1
2017-Aug-19 15:19N 41°22' E 002°11'0 0.0
2017-Aug-19 12:25N 41°22' E 002°11'0 0.0
2017-Aug-19 11:55N 41°22' E 002°11'0 0.0
2017-Aug-19 11:31N 41°22' E 002°11'0 0.0
2017-Aug-19 10:37N 41°22' E 002°11'0 0.0
2017-Aug-19 10:31N 41°22' E 002°11'0 0.0
2017-Aug-19 10:01N 41°22' E 002°11'0 0.0
2017-Aug-19 08:07N 41°22' E 002°11'0 0.0
2017-Aug-19 07:07N 41°22' E 002°11'0 0.0
2017-Aug-19 06:55N 41°22' E 002°11'1 1.0
2017-Aug-19 06:21N 41°21' E 002°10'2 6.4
2017-Aug-19 06:00N 41°19' E 002°10'710.5
2017-Aug-19 05:19N 41°16' E 002°19'412.5
2017-Aug-19 05:00N 41°16' E 002°24'714.0
2017-Aug-19 04:30N 41°16' E 002°34'713.5
2017-Aug-19 04:00N 41°19' E 002°42'713.8
2017-Aug-19 03:27N 41°23' E 002°50'613.9
2017-Aug-19 03:00N 41°27' E 002°57'814.0
2017-Aug-19 02:26N 41°31' E 003°06'614.1
2017-Aug-19 02:00N 41°35' E 003°12'714.1
2017-Aug-19 01:30N 41°39' E 003°20'714.2
2017-Aug-19 01:00N 41°43' E 003°28'714.4
2017-Aug-19 00:30N 41°47' E 003°36'715.1
2017-Aug-19 00:00N 41°51' E 003°44'3616.3
2017-Aug-18 21:46N 42°12' E 004°24'416.4
2017-Aug-18 21:30N 42°15' E 004°29'816.2
2017-Aug-18 21:00N 42°19' E 004°38'816.0
2017-Aug-18 20:31N 42°24' E 004°47'815.9
2017-Aug-18 20:01N 42°29' E 004°56'816.4
2017-Aug-18 19:30N 42°33' E 005°05'816.5
2017-Aug-18 19:00N 42°38' E 005°14'816.7
2017-Aug-18 18:31N 42°43' E 005°23'816.5
2017-Aug-18 18:00N 42°48' E 005°32'816.4
2017-Aug-18 17:30N 42°52' E 005°41'816.4
2017-Aug-18 17:00N 42°57' E 005°51'815.8
2017-Aug-18 16:30N 43°03' E 005°58'4 8.7
2017-Aug-18 16:00N 43°06' E 005°55'1 1.4
2017-Aug-18 15:30N 43°06' E 005°54'0 0.0
2017-Aug-18 15:00N 43°06' E 005°54'0 0.0
2017-Aug-18 14:00N 43°06' E 005°54'0 0.0
2017-Aug-18 13:30N 43°06' E 005°54'0 0.0
2017-Aug-18 13:00N 43°06' E 005°54'0 0.0
2017-Aug-18 12:30N 43°06' E 005°54'0 0.0
2017-Aug-18 11:57N 43°06' E 005°54'0 0.0
2017-Aug-18 11:30N 43°06' E 005°54'0 0.0
2017-Aug-18 11:00N 43°06' E 005°54'0 0.0
2017-Aug-18 10:30N 43°06' E 005°54'0 0.0
2017-Aug-18 10:00N 43°06' E 005°54'0 0.0
2017-Aug-18 09:30N 43°06' E 005°54'0 0.0
2017-Aug-18 09:00N 43°06' E 005°54'0 0.0
2017-Aug-18 08:27N 43°06' E 005°54'0 0.0
2017-Aug-18 08:00N 43°06' E 005°54'0 0.0
2017-Aug-18 07:30N 43°06' E 005°54'0 0.0
2017-Aug-18 07:00N 43°06' E 005°54'0 0.0
2017-Aug-18 06:30N 43°06' E 005°54'0 0.0
2017-Aug-18 06:00N 43°06' E 005°54'0 0.1
2017-Aug-18 05:31N 43°06' E 005°54'1 2.6
2017-Aug-18 05:01N 43°05' E 005°55'3 6.3
2017-Aug-18 04:31N 43°05' E 005°59'3 5.6
2017-Aug-18 03:59N 43°02' E 006°02'1 0.5
2017-Aug-18 02:52N 43°02' E 006°01'0 0.5
2017-Aug-18 02:19N 43°02' E 006°01'0 1.0
2017-Aug-18 02:00N 43°02' E 006°01'2 4.6
2017-Aug-18 01:30N 42°60' E 006°03'4 8.2
2017-Aug-18 01:00N 42°56' E 006°06'4 7.9
2017-Aug-18 00:31N 42°53' E 006°08'4 8.1
2017-Aug-18 00:00N 42°49' E 006°10'4 8.2
2017-Aug-17 23:30N 42°45' E 006°13'6 8.6
2017-Aug-17 22:45N 42°44' E 006°22'10 8.7
2017-Aug-17 21:38N 42°45' E 006°35'21 8.8
2017-Aug-17 19:17N 43°01' E 006°54'4 8.9
2017-Aug-17 18:50N 43°04' E 006°57'3 8.7
2017-Aug-17 18:30N 43°06' E 006°60'4 8.4
2017-Aug-17 17:59N 43°10' E 007°01'4 8.8
2017-Aug-17 17:30N 43°15' E 007°00'4 8.8
2017-Aug-17 17:00N 43°19' E 007°00'4 8.6
2017-Aug-17 16:30N 43°23' E 007°00'4 8.4
2017-Aug-17 16:00N 43°27' E 006°60'4 7.3
2017-Aug-17 15:30N 43°31' E 007°00'1 2.2
2017-Aug-17 15:00N 43°32' E 007°01'0 0.0
2017-Aug-17 14:30N 43°32' E 007°01'0 0.0
2017-Aug-17 14:00N 43°32' E 007°01'0 0.0
2017-Aug-17 13:30N 43°32' E 007°01'0 0.0
2017-Aug-17 13:00N 43°32' E 007°01'0 0.0
2017-Aug-17 12:30N 43°32' E 007°01'0 0.0
2017-Aug-17 11:57N 43°32' E 007°01'0 0.0
2017-Aug-17 11:30N 43°32' E 007°01'0 0.0
2017-Aug-17 11:00N 43°32' E 007°01'0 0.1
2017-Aug-17 10:30N 43°32' E 007°01'0 0.0
2017-Aug-17 09:57N 43°32' E 007°01'0 0.0
2017-Aug-17 09:30N 43°32' E 007°01'0 0.0
2017-Aug-17 09:00N 43°32' E 007°01'0 0.0
2017-Aug-17 08:30N 43°32' E 007°01'0 0.0
2017-Aug-17 08:00N 43°32' E 007°01'0 0.0
2017-Aug-17 07:30N 43°32' E 007°01'0 0.0
2017-Aug-17 07:00N 43°32' E 007°01'0 0.0
2017-Aug-17 06:30N 43°32' E 007°01'0 0.0
2017-Aug-17 06:00N 43°32' E 007°01'0 0.5
2017-Aug-17 05:31N 43°32' E 007°01'3 5.4
2017-Aug-17 05:00N 43°29' E 007°01'4 8.9
2017-Aug-17 04:30N 43°28' E 007°08'510.1
2017-Aug-17 04:00N 43°29' E 007°14'611.5
2017-Aug-17 03:30N 43°29' E 007°22'612.1
2017-Aug-17 03:00N 43°29' E 007°31'612.3
2017-Aug-17 02:30N 43°30' E 007°39'612.3
2017-Aug-17 02:00N 43°30' E 007°48'713.2
2017-Aug-17 01:30N 43°30' E 007°57'814.7
2017-Aug-17 00:58N 43°30' E 008°08'714.5
2017-Aug-17 00:30N 43°30' E 008°17'714.3
2017-Aug-17 00:00N 43°31' E 008°27'714.3
2017-Aug-16 23:30N 43°31' E 008°36'714.2
2017-Aug-16 23:00N 43°31' E 008°46'714.2
2017-Aug-16 22:30N 43°31' E 008°56'714.2
2017-Aug-16 22:00N 43°31' E 009°06'714.0
2017-Aug-16 21:31N 43°31' E 009°16'713.5
2017-Aug-16 21:01N 43°32' E 009°25'713.9
2017-Aug-16 20:30N 43°31' E 009°34'815.7
2017-Aug-16 20:00N 43°31' E 009°45'815.7
2017-Aug-16 19:30N 43°31' E 009°56'815.5
2017-Aug-16 19:00N 43°31' E 010°07'714.3
2017-Aug-16 18:30N 43°32' E 010°16'2 3.2
2017-Aug-16 18:00N 43°33' E 010°18'0 0.1
2017-Aug-16 17:30N 43°33' E 010°18'0 0.0
2017-Aug-16 17:00N 43°33' E 010°18'0 0.0
2017-Aug-16 16:30N 43°33' E 010°18'0 0.0
2017-Aug-16 15:57N 43°33' E 010°18'0 0.0
2017-Aug-16 15:30N 43°33' E 010°18'0 0.0
2017-Aug-16 15:00N 43°33' E 010°18'0 0.0
2017-Aug-16 14:30N 43°33' E 010°18'0 0.0
2017-Aug-16 13:57N 43°33' E 010°18'0 0.0
2017-Aug-16 13:30N 43°33' E 010°18'0 0.0
2017-Aug-16 13:00N 43°33' E 010°18'0 0.0
2017-Aug-16 12:30N 43°33' E 010°18'0 0.0
2017-Aug-16 12:00N 43°33' E 010°18'0 0.0
2017-Aug-16 11:30N 43°33' E 010°18'0 0.0
2017-Aug-16 10:57N 43°33' E 010°18'0 0.0
2017-Aug-16 10:30N 43°33' E 010°18'0 0.0
2017-Aug-16 10:00N 43°33' E 010°18'0 0.0
2017-Aug-16 09:30N 43°33' E 010°18'0 0.0
2017-Aug-16 09:00N 43°33' E 010°18'0 0.0
2017-Aug-16 08:27N 43°33' E 010°18'0 0.0
2017-Aug-16 07:57N 43°33' E 010°18'0 0.0
2017-Aug-16 07:27N 43°33' E 010°18'0 0.0
2017-Aug-16 06:57N 43°33' E 010°18'0 0.0
2017-Aug-16 06:30N 43°33' E 010°18'0 0.0
2017-Aug-16 05:57N 43°33' E 010°18'0 0.2
2017-Aug-16 05:30N 43°33' E 010°18'3 5.0
2017-Aug-16 05:00N 43°31' E 010°16'510.4
2017-Aug-16 04:30N 43°27' E 010°12'510.5
2017-Aug-16 04:00N 43°22' E 010°11'611.2
2017-Aug-16 03:30N 43°16' E 010°09'611.2
2017-Aug-16 03:00N 43°11' E 010°07'510.6
2017-Aug-16 02:30N 43°06' E 010°06'510.2
2017-Aug-16 01:59N 43°00' E 010°05'510.1
2017-Aug-16 01:30N 42°56' E 010°04'510.3
2017-Aug-16 01:00N 42°51' E 010°02'510.6
2017-Aug-16 00:30N 42°45' E 010°01'611.4
2017-Aug-16 00:00N 42°41' E 010°06'1512.1
2017-Aug-15 22:48N 42°30' E 010°19'1215.1
2017-Aug-15 21:58N 42°21' E 010°30'2114.5
2017-Aug-15 20:32N 42°05' E 010°49'014.6
2017-Aug-15 20:30N 42°05' E 010°49'814.7
2017-Aug-15 19:59N 42°02' E 010°59'714.0
2017-Aug-15 19:29N 42°01' E 011°08'714.6
2017-Aug-15 19:00N 42°02' E 011°17'70 3.7
2017-Aug-15 00:27N 41°13' E 012°24'614.0
2017-Aug-15 00:00N 41°08' E 012°28'1514.1
2017-Aug-14 22:57N 40°56' E 012°41'614.2
2017-Aug-14 22:30N 40°51' E 012°46'2714.8
2017-Aug-14 20:40N 40°43' E 013°20'215.8
2017-Aug-14 20:31N 40°42' E 013°23'815.8
2017-Aug-14 20:01N 40°40' E 013°33'1215.4
2017-Aug-14 19:12N 40°38' E 013°49'315.1
2017-Aug-14 19:00N 40°37' E 013°53'815.4
2017-Aug-14 18:30N 40°38' E 014°03'815.4
2017-Aug-14 18:00N 40°43' E 014°10'714.8
2017-Aug-14 17:30N 40°49' E 014°17'2 3.6
2017-Aug-14 17:00N 40°50' E 014°15'0 0.0
2017-Aug-14 16:26N 40°50' E 014°15'0 0.0
2017-Aug-14 12:20N 40°50' E 014°15'0 0.0
2017-Aug-14 11:50N 40°50' E 014°15'0 0.0
2017-Aug-14 11:20N 40°50' E 014°15'0 0.0
2017-Aug-14 10:50N 40°50' E 014°15'0 0.0
2017-Aug-14 10:08N 40°50' E 014°15'0 0.0
2017-Aug-14 09:38N 40°50' E 014°15'0 0.0
2017-Aug-14 09:20N 40°50' E 014°15'0 0.0
2017-Aug-14 08:38N 40°50' E 014°15'0 0.0
2017-Aug-14 08:26N 40°50' E 014°15'0 0.0
2017-Aug-14 07:50N 40°50' E 014°15'0 0.0
2017-Aug-14 07:26N 40°50' E 014°15'0 0.0
2017-Aug-14 06:56N 40°50' E 014°15'0 0.2
2017-Aug-14 06:29N 40°50' E 014°15'2 4.5
2017-Aug-14 06:00N 40°48' E 014°17'5 9.7
2017-Aug-14 05:30N 40°45' E 014°13'10212.8
2017-Aug-13 21:33N 40°49' E 011°59'114.4
2017-Aug-13 21:30N 40°49' E 011°58'1214.9
2017-Aug-13 20:41N 40°53' E 011°43'315.0
2017-Aug-13 20:30N 40°53' E 011°39'1414.8
2017-Aug-13 19:34N 40°57' E 011°21'1114.7
2017-Aug-13 18:49N 40°60' E 011°08'715.1
2017-Aug-13 18:21N 41°02' E 010°58'3315.3
2017-Aug-13 16:11N 41°11' E 010°16'315.0
2017-Aug-13 16:00N 41°11' E 010°13'914.8
2017-Aug-13 15:22N 41°14' E 010°01'514.5
2017-Aug-13 15:00N 41°15' E 009°54'1514.6
2017-Aug-13 13:59N 41°19' E 009°35'7413.4
2017-Aug-13 08:29N 41°21' E 007°56'816.3
2017-Aug-13 08:00N 41°21' E 007°46'816.4
2017-Aug-13 07:30N 41°21' E 007°35'816.6
2017-Aug-13 07:00N 41°20' E 007°24'2515.9
2017-Aug-13 05:25N 41°20' E 006°51'1315.8
2017-Aug-13 04:37N 41°20' E 006°34'216.0
2017-Aug-13 04:30N 41°20' E 006°31'816.0
2017-Aug-13 04:00N 41°20' E 006°21'816.1
2017-Aug-13 03:30N 41°19' E 006°10'14816.6
2017-Aug-12 18:35N 41°17' E 002°53'116.3
2017-Aug-12 18:30N 41°17' E 002°51'816.3
2017-Aug-12 18:00N 41°17' E 002°41'1016.0
2017-Aug-12 17:24N 41°16' E 002°28'615.2
2017-Aug-12 17:00N 41°15' E 002°20'713.8
2017-Aug-12 16:29N 41°17' E 002°11'5 9.4
2017-Aug-12 16:00N 41°21' E 002°11'0 0.1
2017-Aug-12 13:12N 41°22' E 002°11'3 0.4
2017-Aug-12 05:55N 41°18' E 002°10'710.7
2017-Aug-12 05:17N 41°16' E 002°19'414.8
2017-Aug-12 05:00N 41°16' E 002°24'1015.9
2017-Aug-12 04:24N 41°17' E 002°37'12715.6
2017-Aug-11 20:16N 42°29' E 004°57'613.4
2017-Aug-11 19:51N 42°32' E 005°03'513.7
2017-Aug-11 19:30N 42°35' E 005°08'815.3
2017-Aug-11 19:01N 42°39' E 005°17'815.4
2017-Aug-11 18:30N 42°44' E 005°25'715.0
2017-Aug-11 18:00N 42°48' E 005°34'2413.5
2017-Aug-11 16:12N 43°05' E 005°58'2 9.2
2017-Aug-11 16:01N 43°05' E 005°56'2 3.0
2017-Aug-11 15:28N 43°06' E 005°54'0 0.0
2017-Aug-11 14:58N 43°06' E 005°54'0 0.0
2017-Aug-11 14:28N 43°06' E 005°54'0 0.0
2017-Aug-11 13:28N 43°06' E 005°54'0 0.0
2017-Aug-11 12:58N 43°06' E 005°54'0 0.0
2017-Aug-11 12:28N 43°06' E 005°54'0 0.0
2017-Aug-11 11:58N 43°06' E 005°54'0 0.0
2017-Aug-11 11:28N 43°06' E 005°54'0 0.0
2017-Aug-11 10:58N 43°06' E 005°54'0 0.0
2017-Aug-11 10:28N 43°06' E 005°54'0 0.0
2017-Aug-11 09:59N 43°06' E 005°54'0 0.0
2017-Aug-11 09:29N 43°06' E 005°54'0 0.0
2017-Aug-11 08:58N 43°06' E 005°54'0 0.0
2017-Aug-11 08:28N 43°06' E 005°54'0 0.0
2017-Aug-11 07:58N 43°06' E 005°54'0 0.0
2017-Aug-11 07:25N 43°06' E 005°54'0 0.0
2017-Aug-11 06:59N 43°06' E 005°54'0 0.0
2017-Aug-11 06:28N 43°06' E 005°54'0 0.0
2017-Aug-11 05:58N 43°06' E 005°54'0 0.0
2017-Aug-11 05:28N 43°06' E 005°54'0 0.0
2017-Aug-11 04:58N 43°06' E 005°54'0 0.0
2017-Aug-11 04:25N 43°06' E 005°54'0 0.0
2017-Aug-11 03:58N 43°06' E 005°54'0 0.0
2017-Aug-11 03:28N 43°06' E 005°54'0 0.0
2017-Aug-11 02:59N 43°06' E 005°54'0 0.0
2017-Aug-11 02:28N 43°06' E 005°54'0 0.0
2017-Aug-11 01:58N 43°06' E 005°54'0 0.0
2017-Aug-11 01:28N 43°06' E 005°54'0 0.0
2017-Aug-11 00:58N 43°06' E 005°54'0 0.0
2017-Aug-11 00:28N 43°06' E 005°54'0 0.0
2017-Aug-10 23:59N 43°06' E 005°54'0 0.0
2017-Aug-10 23:28N 43°06' E 005°54'0 0.0
2017-Aug-10 22:58N 43°06' E 005°54'0 0.0
2017-Aug-10 22:28N 43°06' E 005°54'0 0.0
2017-Aug-10 21:58N 43°06' E 005°54'0 0.0
2017-Aug-10 21:29N 43°06' E 005°54'0 0.0
2017-Aug-10 20:58N 43°06' E 005°54'0 0.0
2017-Aug-10 20:25N 43°06' E 005°54'0 0.0
2017-Aug-10 19:55N 43°06' E 005°54'0 0.0
2017-Aug-10 19:28N 43°06' E 005°54'0 0.0
2017-Aug-10 18:58N 43°06' E 005°54'0 0.0
2017-Aug-10 18:28N 43°06' E 005°54'0 0.0
2017-Aug-10 17:58N 43°06' E 005°54'0 0.0
2017-Aug-10 17:28N 43°06' E 005°54'0 0.0
2017-Aug-10 16:59N 43°06' E 005°54'0 0.5
2017-Aug-10 16:31N 43°07' E 005°54'3 5.7
2017-Aug-10 16:00N 43°05' E 005°58'612.6
2017-Aug-10 15:30N 43°01' E 006°04'42 7.5
2017-Aug-10 09:54N 42°57' E 007°01'3 6.8
2017-Aug-10 09:30N 42°58' E 007°05'3 6.6
2017-Aug-10 09:00N 42°58' E 007°09'3 6.9
2017-Aug-10 08:30N 42°59' E 007°14'3 6.8
2017-Aug-10 08:00N 42°59' E 007°19'3 6.7
2017-Aug-10 07:30N 42°59' E 007°23'5 7.2
2017-Aug-10 06:50N 42°60' E 007°30'2 7.3
2017-Aug-10 06:30N 42°60' E 007°33'4 7.5
2017-Aug-10 06:00N 43°00' E 007°38'4 7.8
2017-Aug-10 05:30N 43°01' E 007°43'510.8
2017-Aug-10 05:00N 43°02' E 007°51'510.8
2017-Aug-10 04:30N 43°03' E 007°58'710.5
2017-Aug-10 03:48N 43°05' E 008°08'310.6
2017-Aug-10 03:30N 43°06' E 008°12'510.7
2017-Aug-10 03:00N 43°08' E 008°19'510.6
2017-Aug-10 02:30N 43°10' E 008°25'510.6
2017-Aug-10 02:00N 43°11' E 008°32'510.6
2017-Aug-10 01:30N 43°13' E 008°39'510.8
2017-Aug-10 01:00N 43°15' E 008°46'510.8
2017-Aug-10 00:30N 43°17' E 008°53'611.1
2017-Aug-10 00:00N 43°19' E 008°60'611.2
2017-Aug-09 23:30N 43°21' E 009°07'611.3
2017-Aug-09 23:00N 43°23' E 009°14'611.5
2017-Aug-09 22:30N 43°25' E 009°22'611.4
2017-Aug-09 22:00N 43°27' E 009°29'611.1
2017-Aug-09 21:30N 43°29' E 009°36'  
Track history (hours):
 
Tides and Currents Weather Stations Pressure Air Temp Water Temp Dewpoint Dewpoint Depression Visibility Wind Speed Wind Dir Waves Ship Positions

Sovereign

Last reported at 2017-Aug-19 21:01 UTC. Time now 2017-Aug-20 20:47 UTC.
Position N 41°17' E 003°47'.

Length 268 m; draft 7.6 m.

Type: Passenger vessel. MMSI: 249539000.

Date/timePositionNaut miles runAvg speedWind from/ knotsBaromVisibWave heightAir tempDewpointWater temp
2017-Aug-19 21:01N 41°17' E 003°47'116.7
2017-Aug-19 20:56N 41°17' E 003°45'716.7
2017-Aug-19 20:30N 41°17' E 003°36'916.6
2017-Aug-19 19:59N 41°17' E 003°24'816.3
2017-Aug-19 19:30N 41°17' E 003°14'816.1
2017-Aug-19 19:00N 41°17' E 003°03'816.2
2017-Aug-19 18:29N 41°17' E 002°52'816.4
2017-Aug-19 18:00N 41°16' E 002°41'816.4
2017-Aug-19 17:31N 41°17' E 002°30'916.3
2017-Aug-19 16:58N 41°16' E 002°19'714.0
2017-Aug-19 16:30N 41°18' E 002°10'4 7.8
2017-Aug-19 16:00N 41°22' E 002°11'0 0.1
2017-Aug-19 15:19N 41°22' E 002°11'0 0.0
2017-Aug-19 12:25N 41°22' E 002°11'0 0.0
2017-Aug-19 11:55N 41°22' E 002°11'0 0.0
2017-Aug-19 11:31N 41°22' E 002°11'0 0.0
2017-Aug-19 10:37N 41°22' E 002°11'0 0.0
2017-Aug-19 10:31N 41°22' E 002°11'0 0.0
2017-Aug-19 10:01N 41°22' E 002°11'0 0.0
2017-Aug-19 08:07N 41°22' E 002°11'0 0.0
2017-Aug-19 07:07N 41°22' E 002°11'0 0.0
2017-Aug-19 06:55N 41°22' E 002°11'1 1.0
2017-Aug-19 06:21N 41°21' E 002°10'2 6.4
2017-Aug-19 06:00N 41°19' E 002°10'710.5
2017-Aug-19 05:19N 41°16' E 002°19'412.5
2017-Aug-19 05:00N 41°16' E 002°24'714.0
2017-Aug-19 04:30N 41°16' E 002°34'713.5
2017-Aug-19 04:00N 41°19' E 002°42'713.8
2017-Aug-19 03:27N 41°23' E 002°50'613.9
2017-Aug-19 03:00N 41°27' E 002°57'814.0
2017-Aug-19 02:26N 41°31' E 003°06'614.1
2017-Aug-19 02:00N 41°35' E 003°12'714.1
2017-Aug-19 01:30N 41°39' E 003°20'714.2
2017-Aug-19 01:00N 41°43' E 003°28'714.4
2017-Aug-19 00:30N 41°47' E 003°36'715.1
2017-Aug-19 00:00N 41°51' E 003°44'3616.3
2017-Aug-18 21:46N 42°12' E 004°24'416.4
2017-Aug-18 21:30N 42°15' E 004°29'816.2
2017-Aug-18 21:00N 42°19' E 004°38'816.0
2017-Aug-18 20:31N 42°24' E 004°47'815.9
2017-Aug-18 20:01N 42°29' E 004°56'816.4
2017-Aug-18 19:30N 42°33' E 005°05'816.5
2017-Aug-18 19:00N 42°38' E 005°14'816.7
2017-Aug-18 18:31N 42°43' E 005°23'816.5
2017-Aug-18 18:00N 42°48' E 005°32'816.4
2017-Aug-18 17:30N 42°52' E 005°41'816.4
2017-Aug-18 17:00N 42°57' E 005°51'815.8
2017-Aug-18 16:30N 43°03' E 005°58'4 8.7
2017-Aug-18 16:00N 43°06' E 005°55'1 1.4
2017-Aug-18 15:30N 43°06' E 005°54'0 0.0
2017-Aug-18 15:00N 43°06' E 005°54'0 0.0
2017-Aug-18 14:00N 43°06' E 005°54'0 0.0
2017-Aug-18 13:30N 43°06' E 005°54'0 0.0
2017-Aug-18 13:00N 43°06' E 005°54'0 0.0
2017-Aug-18 12:30N 43°06' E 005°54'0 0.0
2017-Aug-18 11:57N 43°06' E 005°54'0 0.0
2017-Aug-18 11:30N 43°06' E 005°54'0 0.0
2017-Aug-18 11:00N 43°06' E 005°54'0 0.0
2017-Aug-18 10:30N 43°06' E 005°54'0 0.0
2017-Aug-18 10:00N 43°06' E 005°54'0 0.0
2017-Aug-18 09:30N 43°06' E 005°54'0 0.0
2017-Aug-18 09:00N 43°06' E 005°54'0 0.0
2017-Aug-18 08:27N 43°06' E 005°54'0 0.0
2017-Aug-18 08:00N 43°06' E 005°54'0 0.0
2017-Aug-18 07:30N 43°06' E 005°54'0 0.0
2017-Aug-18 07:00N 43°06' E 005°54'0 0.0
2017-Aug-18 06:30N 43°06' E 005°54'0 0.0
2017-Aug-18 06:00N 43°06' E 005°54'0 0.1
2017-Aug-18 05:31N 43°06' E 005°54'1 2.6
2017-Aug-18 05:01N 43°05' E 005°55'3 6.3
2017-Aug-18 04:31N 43°05' E 005°59'3 5.6
2017-Aug-18 03:59N 43°02' E 006°02'1 0.5
2017-Aug-18 02:52N 43°02' E 006°01'0 0.5
2017-Aug-18 02:19N 43°02' E 006°01'0 1.0
2017-Aug-18 02:00N 43°02' E 006°01'2 4.6
2017-Aug-18 01:30N 42°60' E 006°03'4 8.2
2017-Aug-18 01:00N 42°56' E 006°06'4 7.9
2017-Aug-18 00:31N 42°53' E 006°08'4 8.1
2017-Aug-18 00:00N 42°49' E 006°10'4 8.2
2017-Aug-17 23:30N 42°45' E 006°13'6 8.6
2017-Aug-17 22:45N 42°44' E 006°22'10 8.7
2017-Aug-17 21:38N 42°45' E 006°35'21 8.8
2017-Aug-17 19:17N 43°01' E 006°54'4 8.9
2017-Aug-17 18:50N 43°04' E 006°57'3 8.7
2017-Aug-17 18:30N 43°06' E 006°60'4 8.4
2017-Aug-17 17:59N 43°10' E 007°01'4 8.8
2017-Aug-17 17:30N 43°15' E 007°00'4 8.8
2017-Aug-17 17:00N 43°19' E 007°00'4 8.6
2017-Aug-17 16:30N 43°23' E 007°00'4 8.4
2017-Aug-17 16:00N 43°27' E 006°60'4 7.3
2017-Aug-17 15:30N 43°31' E 007°00'1 2.2
2017-Aug-17 15:00N 43°32' E 007°01'0 0.0
2017-Aug-17 14:30N 43°32' E 007°01'0 0.0
2017-Aug-17 14:00N 43°32' E 007°01'0 0.0
2017-Aug-17 13:30N 43°32' E 007°01'0 0.0
2017-Aug-17 13:00N 43°32' E 007°01'0 0.0
2017-Aug-17 12:30N 43°32' E 007°01'0 0.0
2017-Aug-17 11:57N 43°32' E 007°01'0 0.0
2017-Aug-17 11:30N 43°32' E 007°01'0 0.0
2017-Aug-17 11:00N 43°32' E 007°01'0 0.1
2017-Aug-17 10:30N 43°32' E 007°01'0 0.0
2017-Aug-17 09:57N 43°32' E 007°01'0 0.0
2017-Aug-17 09:30N 43°32' E 007°01'0 0.0
2017-Aug-17 09:00N 43°32' E 007°01'0 0.0
2017-Aug-17 08:30N 43°32' E 007°01'0 0.0
2017-Aug-17 08:00N 43°32' E 007°01'0 0.0
2017-Aug-17 07:30N 43°32' E 007°01'0 0.0
2017-Aug-17 07:00N 43°32' E 007°01'0 0.0
2017-Aug-17 06:30N 43°32' E 007°01'0 0.0
2017-Aug-17 06:00N 43°32' E 007°01'0 0.5
2017-Aug-17 05:31N 43°32' E 007°01'3 5.4
2017-Aug-17 05:00N 43°29' E 007°01'4 8.9
2017-Aug-17 04:30N 43°28' E 007°08'510.1
2017-Aug-17 04:00N 43°29' E 007°14'611.5
2017-Aug-17 03:30N 43°29' E 007°22'612.1
2017-Aug-17 03:00N 43°29' E 007°31'612.3
2017-Aug-17 02:30N 43°30' E 007°39'612.3
2017-Aug-17 02:00N 43°30' E 007°48'713.2
2017-Aug-17 01:30N 43°30' E 007°57'814.7
2017-Aug-17 00:58N 43°30' E 008°08'714.5
2017-Aug-17 00:30N 43°30' E 008°17'714.3
2017-Aug-17 00:00N 43°31' E 008°27'714.3
2017-Aug-16 23:30N 43°31' E 008°36'714.2
2017-Aug-16 23:00N 43°31' E 008°46'714.2
2017-Aug-16 22:30N 43°31' E 008°56'714.2
2017-Aug-16 22:00N 43°31' E 009°06'714.0
2017-Aug-16 21:31N 43°31' E 009°16'713.5
2017-Aug-16 21:01N 43°32' E 009°25'713.9
2017-Aug-16 20:30N 43°31' E 009°34'815.7
2017-Aug-16 20:00N 43°31' E 009°45'815.7
2017-Aug-16 19:30N 43°31' E 009°56'815.5
2017-Aug-16 19:00N 43°31' E 010°07'714.3
2017-Aug-16 18:30N 43°32' E 010°16'2 3.2
2017-Aug-16 18:00N 43°33' E 010°18'0 0.1
2017-Aug-16 17:30N 43°33' E 010°18'0 0.0
2017-Aug-16 17:00N 43°33' E 010°18'0 0.0
2017-Aug-16 16:30N 43°33' E 010°18'0 0.0
2017-Aug-16 15:57N 43°33' E 010°18'0 0.0
2017-Aug-16 15:30N 43°33' E 010°18'0 0.0
2017-Aug-16 15:00N 43°33' E 010°18'0 0.0
2017-Aug-16 14:30N 43°33' E 010°18'0 0.0
2017-Aug-16 13:57N 43°33' E 010°18'0 0.0
2017-Aug-16 13:30N 43°33' E 010°18'0 0.0
2017-Aug-16 13:00N 43°33' E 010°18'0 0.0
2017-Aug-16 12:30N 43°33' E 010°18'0 0.0
2017-Aug-16 12:00N 43°33' E 010°18'0 0.0
2017-Aug-16 11:30N 43°33' E 010°18'0 0.0
2017-Aug-16 10:57N 43°33' E 010°18'0 0.0
2017-Aug-16 10:30N 43°33' E 010°18'0 0.0
2017-Aug-16 10:00N 43°33' E 010°18'0 0.0
2017-Aug-16 09:30N 43°33' E 010°18'0 0.0
2017-Aug-16 09:00N 43°33' E 010°18'0 0.0
2017-Aug-16 08:27N 43°33' E 010°18'0 0.0
2017-Aug-16 07:57N 43°33' E 010°18'0 0.0
2017-Aug-16 07:27N 43°33' E 010°18'0 0.0
2017-Aug-16 06:57N 43°33' E 010°18'0 0.0
2017-Aug-16 06:30N 43°33' E 010°18'0 0.0
2017-Aug-16 05:57N 43°33' E 010°18'0 0.2
2017-Aug-16 05:30N 43°33' E 010°18'3 5.0
2017-Aug-16 05:00N 43°31' E 010°16'510.4
2017-Aug-16 04:30N 43°27' E 010°12'510.5
2017-Aug-16 04:00N 43°22' E 010°11'611.2
2017-Aug-16 03:30N 43°16' E 010°09'611.2
2017-Aug-16 03:00N 43°11' E 010°07'510.6
2017-Aug-16 02:30N 43°06' E 010°06'510.2
2017-Aug-16 01:59N 43°00' E 010°05'510.1
2017-Aug-16 01:30N 42°56' E 010°04'510.3
2017-Aug-16 01:00N 42°51' E 010°02'510.6
2017-Aug-16 00:30N 42°45' E 010°01'611.4
2017-Aug-16 00:00N 42°41' E 010°06'1512.1
2017-Aug-15 22:48N 42°30' E 010°19'1215.1
2017-Aug-15 21:58N 42°21' E 010°30'2114.5
2017-Aug-15 20:32N 42°05' E 010°49'014.6
2017-Aug-15 20:30N 42°05' E 010°49'814.7
2017-Aug-15 19:59N 42°02' E 010°59'714.0
2017-Aug-15 19:29N 42°01' E 011°08'714.6
2017-Aug-15 19:00N 42°02' E 011°17'70 3.7
2017-Aug-15 00:27N 41°13' E 012°24'614.0
2017-Aug-15 00:00N 41°08' E 012°28'1514.1
2017-Aug-14 22:57N 40°56' E 012°41'614.2
2017-Aug-14 22:30N 40°51' E 012°46'2714.8
2017-Aug-14 20:40N 40°43' E 013°20'215.8
2017-Aug-14 20:31N 40°42' E 013°23'815.8
2017-Aug-14 20:01N 40°40' E 013°33'1215.4
2017-Aug-14 19:12N 40°38' E 013°49'315.1
2017-Aug-14 19:00N 40°37' E 013°53'815.4
2017-Aug-14 18:30N 40°38' E 014°03'815.4
2017-Aug-14 18:00N 40°43' E 014°10'714.8
2017-Aug-14 17:30N 40°49' E 014°17'2 3.6
2017-Aug-14 17:00N 40°50' E 014°15'0 0.0
2017-Aug-14 16:26N 40°50' E 014°15'0 0.0
2017-Aug-14 12:20N 40°50' E 014°15'0 0.0
2017-Aug-14 11:50N 40°50' E 014°15'0 0.0
2017-Aug-14 11:20N 40°50' E 014°15'0 0.0
2017-Aug-14 10:50N 40°50' E 014°15'0 0.0
2017-Aug-14 10:08N 40°50' E 014°15'0 0.0
2017-Aug-14 09:38N 40°50' E 014°15'0 0.0
2017-Aug-14 09:20N 40°50' E 014°15'0 0.0
2017-Aug-14 08:38N 40°50' E 014°15'0 0.0
2017-Aug-14 08:26N 40°50' E 014°15'0 0.0
2017-Aug-14 07:50N 40°50' E 014°15'0 0.0
2017-Aug-14 07:26N 40°50' E 014°15'0 0.0
2017-Aug-14 06:56N 40°50' E 014°15'0 0.2
2017-Aug-14 06:29N 40°50' E 014°15'2 4.5
2017-Aug-14 06:00N 40°48' E 014°17'5 9.7
2017-Aug-14 05:30N 40°45' E 014°13'10212.8
2017-Aug-13 21:33N 40°49' E 011°59'114.4
2017-Aug-13 21:30N 40°49' E 011°58'1214.9
2017-Aug-13 20:41N 40°53' E 011°43'315.0
2017-Aug-13 20:30N 40°53' E 011°39'1414.8
2017-Aug-13 19:34N 40°57' E 011°21'1114.7
2017-Aug-13 18:49N 40°60' E 011°08'715.1
2017-Aug-13 18:21N 41°02' E 010°58'3315.3
2017-Aug-13 16:11N 41°11' E 010°16'315.0
2017-Aug-13 16:00N 41°11' E 010°13'914.8
2017-Aug-13 15:22N 41°14' E 010°01'514.5
2017-Aug-13 15:00N 41°15' E 009°54'1514.6
2017-Aug-13 13:59N 41°19' E 009°35'7413.4
2017-Aug-13 08:29N 41°21' E 007°56'816.3
2017-Aug-13 08:00N 41°21' E 007°46'816.4
2017-Aug-13 07:30N 41°21' E 007°35'816.6
2017-Aug-13 07:00N 41°20' E 007°24'2515.9
2017-Aug-13 05:25N 41°20' E 006°51'1315.8
2017-Aug-13 04:37N 41°20' E 006°34'216.0
2017-Aug-13 04:30N 41°20' E 006°31'816.0
2017-Aug-13 04:00N 41°20' E 006°21'816.1
2017-Aug-13 03:30N 41°19' E 006°10'14816.6
2017-Aug-12 18:35N 41°17' E 002°53'116.3
2017-Aug-12 18:30N 41°17' E 002°51'816.3
2017-Aug-12 18:00N 41°17' E 002°41'1016.0
2017-Aug-12 17:24N 41°16' E 002°28'615.2
2017-Aug-12 17:00N 41°15' E 002°20'713.8
2017-Aug-12 16:29N 41°17' E 002°11'5 9.4
2017-Aug-12 16:00N 41°21' E 002°11'0 0.1
2017-Aug-12 13:12N 41°22' E 002°11'3 0.4
2017-Aug-12 05:55N 41°18' E 002°10'710.7
2017-Aug-12 05:17N 41°16' E 002°19'414.8
2017-Aug-12 05:00N 41°16' E 002°24'1015.9
2017-Aug-12 04:24N 41°17' E 002°37'12715.6
2017-Aug-11 20:16N 42°29' E 004°57'613.4
2017-Aug-11 19:51N 42°32' E 005°03'513.7
2017-Aug-11 19:30N 42°35' E 005°08'815.3
2017-Aug-11 19:01N 42°39' E 005°17'815.4
2017-Aug-11 18:30N 42°44' E 005°25'715.0
2017-Aug-11 18:00N 42°48' E 005°34'2413.5
2017-Aug-11 16:12N 43°05' E 005°58'2 9.2
2017-Aug-11 16:01N 43°05' E 005°56'2 3.0
2017-Aug-11 15:28N 43°06' E 005°54'0 0.0
2017-Aug-11 14:58N 43°06' E 005°54'0 0.0
2017-Aug-11 14:28N 43°06' E 005°54'0 0.0
2017-Aug-11 13:28N 43°06' E 005°54'0 0.0
2017-Aug-11 12:58N 43°06' E 005°54'0 0.0
2017-Aug-11 12:28N 43°06' E 005°54'0 0.0
2017-Aug-11 11:58N 43°06' E 005°54'0 0.0
2017-Aug-11 11:28N 43°06' E 005°54'0 0.0
2017-Aug-11 10:58N 43°06' E 005°54'0 0.0
2017-Aug-11 10:28N 43°06' E 005°54'0 0.0
2017-Aug-11 09:59N 43°06' E 005°54'0 0.0
2017-Aug-11 09:29N 43°06' E 005°54'0 0.0
2017-Aug-11 08:58N 43°06' E 005°54'0 0.0
2017-Aug-11 08:28N 43°06' E 005°54'0 0.0
2017-Aug-11 07:58N 43°06' E 005°54'0 0.0
2017-Aug-11 07:25N 43°06' E 005°54'0 0.0
2017-Aug-11 06:59N 43°06' E 005°54'0 0.0
2017-Aug-11 06:28N 43°06' E 005°54'0 0.0
2017-Aug-11 05:58N 43°06' E 005°54'0 0.0
2017-Aug-11 05:28N 43°06' E 005°54'0 0.0
2017-Aug-11 04:58N 43°06' E 005°54'0 0.0
2017-Aug-11 04:25N 43°06' E 005°54'0 0.0
2017-Aug-11 03:58N 43°06' E 005°54'0 0.0
2017-Aug-11 03:28N 43°06' E 005°54'0 0.0
2017-Aug-11 02:59N 43°06' E 005°54'0 0.0
2017-Aug-11 02:28N 43°06' E 005°54'0 0.0
2017-Aug-11 01:58N 43°06' E 005°54'0 0.0
2017-Aug-11 01:28N 43°06' E 005°54'0 0.0
2017-Aug-11 00:58N 43°06' E 005°54'0 0.0
2017-Aug-11 00:28N 43°06' E 005°54'0 0.0
2017-Aug-10 23:59N 43°06' E 005°54'0 0.0
2017-Aug-10 23:28N 43°06' E 005°54'0 0.0
2017-Aug-10 22:58N 43°06' E 005°54'0 0.0
2017-Aug-10 22:28N 43°06' E 005°54'0 0.0
2017-Aug-10 21:58N 43°06' E 005°54'0 0.0
2017-Aug-10 21:29N 43°06' E 005°54'0 0.0
2017-Aug-10 20:58N 43°06' E 005°54'0 0.0
2017-Aug-10 20:25N 43°06' E 005°54'0 0.0
2017-Aug-10 19:55N 43°06' E 005°54'0 0.0
2017-Aug-10 19:28N 43°06' E 005°54'0 0.0
2017-Aug-10 18:58N 43°06' E 005°54'0 0.0
2017-Aug-10 18:28N 43°06' E 005°54'0 0.0
2017-Aug-10 17:58N 43°06' E 005°54'0 0.0
2017-Aug-10 17:28N 43°06' E 005°54'0 0.0
2017-Aug-10 16:59N 43°06' E 005°54'0 0.5
2017-Aug-10 16:31N 43°07' E 005°54'3 5.7
2017-Aug-10 16:00N 43°05' E 005°58'612.6
2017-Aug-10 15:30N 43°01' E 006°04'42 7.5
2017-Aug-10 09:54N 42°57' E 007°01'3 6.8
2017-Aug-10 09:30N 42°58' E 007°05'3 6.6
2017-Aug-10 09:00N 42°58' E 007°09'3 6.9
2017-Aug-10 08:30N 42°59' E 007°14'3 6.8
2017-Aug-10 08:00N 42°59' E 007°19'3 6.7
2017-Aug-10 07:30N 42°59' E 007°23'5 7.2
2017-Aug-10 06:50N 42°60' E 007°30'2 7.3
2017-Aug-10 06:30N 42°60' E 007°33'4 7.5
2017-Aug-10 06:00N 43°00' E 007°38'4 7.8
2017-Aug-10 05:30N 43°01' E 007°43'510.8
2017-Aug-10 05:00N 43°02' E 007°51'510.8
2017-Aug-10 04:30N 43°03' E 007°58'710.5
2017-Aug-10 03:48N 43°05' E 008°08'310.6
2017-Aug-10 03:30N 43°06' E 008°12'510.7
2017-Aug-10 03:00N 43°08' E 008°19'510.6
2017-Aug-10 02:30N 43°10' E 008°25'510.6
2017-Aug-10 02:00N 43°11' E 008°32'510.6
2017-Aug-10 01:30N 43°13' E 008°39'510.8
2017-Aug-10 01:00N 43°15' E 008°46'510.8
2017-Aug-10 00:30N 43°17' E 008°53'611.1
2017-Aug-10 00:00N 43°19' E 008°60'611.2
2017-Aug-09 23:30N 43°21' E 009°07'611.3
2017-Aug-09 23:00N 43°23' E 009°14'611.5
2017-Aug-09 22:30N 43°25' E 009°22'611.4
2017-Aug-09 22:00N 43°27' E 009°29'611.1
2017-Aug-09 21:30N 43°29' E 009°36'  

Dump ship's entire track history